Time;durP1;ratioP1;P1;durP2;ratioP2;P2;SDS_P1;SDS_P2;PMS_P1;PMS_P2;Temp;Humidity;BMP_temperature;BMP_pressure;BME280_temperature;BME280_humidity;BME280_pressure;Samples;Min_cycle;Max_cycle;Signal;HPM_P1;HPM_P2
2021/07/29 00:02:07;;;;;;;;;;;17.90;67.80;;;;;;5052948;28;19974;-80
2021/07/29 00:04:34;;;;;;;;;;;17.80;67.80;;;;;;5034297;28;20461;-80
2021/07/29 00:07:00;;;;;;;;;;;17.80;67.90;;;;;;5052891;28;20028;-80
2021/07/29 00:09:26;;;;;;;;;;;17.90;68.00;;;;;;5054732;28;19936;-80
2021/07/29 00:11:53;;;;;;;;;;;17.90;68.10;;;;;;5037864;28;19928;-80
2021/07/29 00:14:19;;;;;;;;;;;17.90;68.20;;;;;;5056348;28;20392;-80
2021/07/29 00:16:49;;;;;;;;;;;17.80;68.20;;;;;;5056041;28;19925;-80
2021/07/29 00:19:15;;;;;;;;;;;17.80;68.30;;;;;;5056489;28;19929;-80
2021/07/29 00:21:41;;;;;;;;;;;17.80;68.40;;;;;;5055882;28;20399;-80
2021/07/29 00:24:08;;;;;;;;;;;17.80;68.50;;;;;;5056393;28;19947;-80
2021/07/29 00:26:34;;;;;;;;;;;17.70;68.60;;;;;;5055818;28;19971;-80
2021/07/29 00:29:01;;;;;;;;;;;17.70;68.70;;;;;;5070811;28;19925;-79
2021/07/29 00:31:30;;;;;;;;;;;17.70;68.80;;;;;;5056045;28;19928;-80
2021/07/29 00:33:57;;;;;;;;;;;17.70;68.90;;;;;;5055980;28;19924;-79
2021/07/29 00:36:24;;;;;;;;;;;17.60;68.90;;;;;;5055846;28;20015;-80
2021/07/29 00:38:50;;;;;;;;;;;17.60;68.90;;;;;;5055398;28;19925;-80
2021/07/29 00:41:16;;;;;;;;;;;17.60;69.00;;;;;;5055718;28;20466;-79
2021/07/29 00:43:42;;;;;;;;;;;17.60;69.00;;;;;;5055429;28;20292;-80
2021/07/29 00:46:09;;;;;;;;;;;17.60;69.20;;;;;;5037601;28;19987;-79
2021/07/29 00:48:35;;;;;;;;;;;17.60;69.20;;;;;;5055652;28;19925;-80
2021/07/29 00:51:01;;;;;;;;;;;17.60;69.30;;;;;;5055798;28;19974;-79
2021/07/29 00:53:28;;;;;;;;;;;17.60;69.30;;;;;;5055433;28;19925;-79
2021/07/29 00:55:55;;;;;;;;;;;17.50;69.40;;;;;;5048960;28;20325;-80
2021/07/29 00:58:21;;;;;;;;;;;17.50;69.50;;;;;;5055705;28;19931;-80
2021/07/29 01:00:48;;;;;;;;;;;17.50;69.70;;;;;;5055710;28;19928;-80
2021/07/29 01:03:15;;;;;;;;;;;17.50;69.80;;;;;;5055262;28;19925;-80
2021/07/29 01:05:43;;;;;;;;;;;17.40;69.90;;;;;;5055224;28;20404;-80
2021/07/29 01:08:11;;;;;;;;;;;17.40;70.00;;;;;;5055047;28;19932;-80
2021/07/29 01:10:38;;;;;;;;;;;17.40;70.10;;;;;;5055425;28;19924;-80
2021/07/29 01:13:05;;;;;;;;;;;17.40;70.20;;;;;;5054772;28;19991;-75
2021/07/29 01:15:31;;;;;;;;;;;17.30;70.40;;;;;;5055532;28;19933;-77
2021/07/29 01:17:58;;;;;;;;;;;17.30;70.50;;;;;;5055172;28;19924;-79
2021/07/29 01:20:26;;;;;;;;;;;17.30;70.90;;;;;;5054561;28;19931;-79
2021/07/29 01:22:52;;;;;;;;;;;17.30;70.80;;;;;;5054938;28;19924;-76
2021/07/29 01:25:18;;;;;;;;;;;17.20;70.80;;;;;;5054561;28;20375;-79
2021/07/29 01:27:44;;;;;;;;;;;17.20;70.90;;;;;;5054769;28;19932;-79
2021/07/29 01:30:11;;;;;;;;;;;17.20;71.00;;;;;;5054551;28;20392;-79
2021/07/29 01:32:39;;;;;;;;;;;17.20;71.00;;;;;;5054797;28;19925;-79
2021/07/29 01:35:08;;;;;;;;;;;17.20;71.20;;;;;;5054519;28;19925;-79
2021/07/29 01:37:36;;;;;;;;;;;17.20;71.20;;;;;;5054724;28;19939;-79
2021/07/29 01:40:02;;;;;;;;;;;17.20;71.20;;;;;;5054632;28;19951;-79
2021/07/29 01:42:29;;;;;;;;;;;17.10;71.20;;;;;;5054740;28;19932;-79
2021/07/29 01:44:55;;;;;;;;;;;17.10;71.20;;;;;;5054483;28;19925;-79
2021/07/29 01:47:21;;;;;;;;;;;17.10;71.20;;;;;;5054573;28;19964;-79
2021/07/29 01:49:47;;;;;;;;;;;17.10;71.30;;;;;;5036209;28;19997;-79
2021/07/29 01:52:14;;;;;;;;;;;17.10;71.40;;;;;;5054559;28;19971;-79
2021/07/29 01:54:40;;;;;;;;;;;17.10;71.50;;;;;;5053945;28;19947;-79
2021/07/29 01:57:07;;;;;;;;;;;17.10;72.50;;;;;;5053108;28;19924;-79
2021/07/29 01:59:34;;;;;;;;;;;17.10;71.70;;;;;;5045408;28;20297;-79
2021/07/29 02:02:01;;;;;;;;;;;17.00;71.70;;;;;;5053333;28;19947;-79
2021/07/29 02:04:28;;;;;;;;;;;17.00;71.70;;;;;;5053621;28;19932;-79
2021/07/29 02:06:54;;;;;;;;;;;17.00;71.80;;;;;;5053806;28;20387;-79
2021/07/29 02:09:21;;;;;;;;;;;17.00;71.70;;;;;;5035542;28;19924;-79
2021/07/29 02:11:49;;;;;;;;;;;17.00;71.90;;;;;;5053561;28;20396;-79
2021/07/29 02:14:17;;;;;;;;;;;17.00;71.80;;;;;;5053944;28;20021;-79
2021/07/29 02:16:44;;;;;;;;;;;17.00;71.90;;;;;;5053286;28;19940;-79
2021/07/29 02:19:10;;;;;;;;;;;17.00;71.90;;;;;;5054173;28;19925;-79
2021/07/29 02:21:36;;;;;;;;;;;17.00;72.00;;;;;;5035370;28;20010;-79
2021/07/29 02:24:03;;;;;;;;;;;17.00;72.10;;;;;;5053406;28;19936;-79
2021/07/29 02:26:29;;;;;;;;;;;17.00;72.20;;;;;;5053780;28;20007;-79
2021/07/29 02:28:55;;;;;;;;;;;17.00;72.20;;;;;;5053778;28;20062;-79
2021/07/29 02:31:21;;;;;;;;;;;17.00;72.20;;;;;;5052735;28;20387;-79
2021/07/29 02:33:47;;;;;;;;;;;17.00;72.20;;;;;;5053971;28;20011;-79
2021/07/29 02:36:15;;;;;;;;;;;17.00;72.20;;;;;;5052898;28;19928;-79
2021/07/29 02:38:41;;;;;;;;;;;16.90;72.30;;;;;;5053337;28;19924;-79
2021/07/29 02:41:07;;;;;;;;;;;16.90;72.40;;;;;;5053643;28;19987;-78
2021/07/29 02:43:33;;;;;;;;;;;16.90;72.50;;;;;;5053427;28;19924;-79
2021/07/29 02:45:59;;;;;;;;;;;16.90;72.50;;;;;;5053427;28;19971;-78
2021/07/29 02:48:25;;;;;;;;;;;16.90;72.60;;;;;;5053536;28;19925;-79
2021/07/29 02:50:55;;;;;;;;;;;16.90;72.70;;;;;;5053276;28;19990;-79
2021/07/29 02:53:22;;;;;;;;;;;16.90;72.80;;;;;;5046030;28;20392;-79
2021/07/29 02:55:48;;;;;;;;;;;16.90;72.80;;;;;;5053486;28;20015;-79
2021/07/29 02:58:14;;;;;;;;;;;16.90;72.80;;;;;;5052868;28;19935;-79
2021/07/29 03:00:40;;;;;;;;;;;16.90;73.80;;;;;;5053249;28;20014;-79
2021/07/29 03:03:06;;;;;;;;;;;16.80;72.80;;;;;;5053058;28;20404;-79
2021/07/29 03:05:33;;;;;;;;;;;16.80;73.00;;;;;;5052638;28;19924;-79
2021/07/29 03:07:59;;;;;;;;;;;16.80;73.10;;;;;;5051885;28;20284;-79
2021/07/29 03:10:25;;;;;;;;;;;16.80;73.20;;;;;;5053248;28;20091;-79
2021/07/29 03:12:52;;;;;;;;;;;16.80;73.20;;;;;;5053019;28;19970;-79
2021/07/29 03:15:18;;;;;;;;;;;16.70;73.30;;;;;;5052834;28;19970;-79
2021/07/29 03:17:44;;;;;;;;;;;16.70;74.30;;;;;;5053188;28;19943;-79
2021/07/29 03:20:11;;;;;;;;;;;16.70;73.50;;;;;;5052572;28;19925;-78
2021/07/29 03:22:37;;;;;;;;;;;16.70;73.50;;;;;;5052801;28;19970;-79
2021/07/29 03:25:03;;;;;;;;;;;16.70;73.60;;;;;;5053052;28;19978;-79
2021/07/29 03:27:30;;;;;;;;;;;16.70;73.60;;;;;;5039073;28;19932;-79
2021/07/29 03:29:56;;;;;;;;;;;16.70;73.70;;;;;;5052570;28;19976;-78
2021/07/29 03:32:22;;;;;;;;;;;16.70;73.90;;;;;;5052755;28;19998;-79
2021/07/29 03:34:48;;;;;;;;;;;16.60;73.80;;;;;;5068087;28;19926;-78
2021/07/29 03:37:15;;;;;;;;;;;16.60;73.90;;;;;;5052473;28;20015;-78
2021/07/29 03:39:41;;;;;;;;;;;16.60;74.00;;;;;;5052782;28;20007;-78
2021/07/29 03:42:07;;;;;;;;;;;16.60;74.00;;;;;;5052983;28;19929;-79
2021/07/29 03:44:33;;;;;;;;;;;16.60;74.10;;;;;;5056919;28;19998;-79
2021/07/29 03:46:59;;;;;;;;;;;16.60;74.00;;;;;;5056878;28;19925;-76
2021/07/29 03:49:26;;;;;;;;;;;16.60;74.00;;;;;;5056245;28;20352;-79
2021/07/29 03:51:52;;;;;;;;;;;16.60;74.00;;;;;;5055407;28;20004;-79
2021/07/29 03:54:18;;;;;;;;;;;16.60;74.10;;;;;;5053132;28;19936;-79
2021/07/29 03:56:44;;;;;;;;;;;16.60;74.20;;;;;;5056796;28;19929;-79
2021/07/29 03:59:10;;;;;;;;;;;16.60;74.20;;;;;;5056083;28;20004;-79
2021/07/29 04:01:37;;;;;;;;;;;16.60;74.30;;;;;;5056640;28;19924;-79
2021/07/29 04:04:03;;;;;;;;;;;16.60;74.50;;;;;;5056266;28;19931;-80
2021/07/29 04:06:29;;;;;;;;;;;16.60;74.50;;;;;;5056242;28;19978;-79
2021/07/29 04:08:55;;;;;;;;;;;16.60;74.50;;;;;;5056577;28;20298;-78
2021/07/29 04:11:22;;;;;;;;;;;16.60;74.60;;;;;;5056388;28;20143;-78
2021/07/29 04:13:48;;;;;;;;;;;16.60;74.70;;;;;;5056178;28;20010;-79
2021/07/29 04:16:14;;;;;;;;;;;16.50;74.60;;;;;;5056187;28;19932;-79
2021/07/29 04:18:42;;;;;;;;;;;16.60;74.70;;;;;;5055547;28;20409;-79
2021/07/29 04:21:17;;;;;;;;;;;16.60;74.80;;;;;;5056000;28;19971;-78
2021/07/29 04:23:44;;;;;;;;;;;16.50;75.10;;;;;;5056050;28;19924;-79
2021/07/29 04:26:10;;;;;;;;;;;16.50;75.40;;;;;;5055828;28;19924;-79
2021/07/29 04:28:36;;;;;;;;;;;16.50;75.50;;;;;;5055021;28;20459;-77
2021/07/29 04:31:03;;;;;;;;;;;16.50;75.60;;;;;;5055647;28;20011;-77
2021/07/29 04:33:29;;;;;;;;;;;16.40;75.60;;;;;;5055119;28;20291;-77
2021/07/29 04:35:55;;;;;;;;;;;16.40;75.70;;;;;;5055196;28;19929;-76
2021/07/29 04:38:22;;;;;;;;;;;16.40;75.70;;;;;;5055130;28;19925;-77
2021/07/29 04:40:48;;;;;;;;;;;16.40;75.80;;;;;;5055192;28;19925;-78
2021/07/29 04:43:14;;;;;;;;;;;16.40;75.70;;;;;;5055299;28;20369;-76
2021/07/29 04:45:41;;;;;;;;;;;16.40;75.70;;;;;;5054976;28;20357;-76
2021/07/29 04:48:07;;;;;;;;;;;16.40;75.90;;;;;;5054984;28;19925;-74
2021/07/29 04:50:33;;;;;;;;;;;16.40;75.90;;;;;;5055165;28;20383;-76
2021/07/29 04:52:59;;;;;;;;;;;16.50;75.90;;;;;;5049962;28;19925;-75
2021/07/29 04:55:26;;;;;;;;;;;16.50;75.90;;;;;;5054003;28;20020;-75
2021/07/29 04:57:52;;;;;;;;;;;16.50;76.00;;;;;;5054903;28;19925;-75
2021/07/29 05:00:18;;;;;;;;;;;16.50;76.30;;;;;;5054846;28;20336;-75
2021/07/29 05:02:44;;;;;;;;;;;16.50;76.40;;;;;;5054615;28;20403;-75
2021/07/29 05:05:11;;;;;;;;;;;16.50;76.40;;;;;;5054329;28;20381;-75
2021/07/29 05:07:37;;;;;;;;;;;16.50;76.20;;;;;;5055232;28;20058;-76
2021/07/29 05:10:03;;;;;;;;;;;16.50;76.30;;;;;;5054889;28;20021;-76
2021/07/29 05:12:30;;;;;;;;;;;16.50;76.20;;;;;;5054113;28;19932;-76
2021/07/29 05:14:57;;;;;;;;;;;16.40;76.20;;;;;;5036371;28;20026;-77
2021/07/29 05:17:23;;;;;;;;;;;16.50;76.10;;;;;;5053725;28;20047;-76
2021/07/29 05:19:49;;;;;;;;;;;16.50;76.00;;;;;;5053580;28;19940;-76
2021/07/29 05:22:16;;;;;;;;;;;16.50;76.10;;;;;;5053379;28;20328;-77
2021/07/29 05:24:42;;;;;;;;;;;16.50;76.10;;;;;;5052638;28;19936;-77
2021/07/29 05:27:08;;;;;;;;;;;16.50;76.00;;;;;;5054322;28;19925;-76
2021/07/29 05:29:34;;;;;;;;;;;16.50;76.10;;;;;;5054352;28;19925;-76
2021/07/29 05:32:01;;;;;;;;;;;16.50;76.20;;;;;;5053810;28;20621;-75
2021/07/29 05:34:28;;;;;;;;;;;16.50;76.20;;;;;;5054528;28;19986;-76
2021/07/29 05:36:55;;;;;;;;;;;16.60;76.40;;;;;;5054302;28;20300;-77
2021/07/29 05:39:21;;;;;;;;;;;16.60;76.20;;;;;;5054352;28;19925;-76
2021/07/29 05:41:47;;;;;;;;;;;16.60;76.10;;;;;;5053966;28;20376;-76
2021/07/29 05:44:13;;;;;;;;;;;16.60;76.00;;;;;;5053907;28;19928;-76
2021/07/29 05:46:40;;;;;;;;;;;16.60;75.90;;;;;;5052537;28;20425;-78
2021/07/29 05:49:06;;;;;;;;;;;16.60;75.90;;;;;;5036159;28;20273;-81
2021/07/29 05:51:32;;;;;;;;;;;16.60;75.80;;;;;;5054212;28;19983;-77
2021/07/29 05:53:58;;;;;;;;;;;16.60;75.70;;;;;;5053672;28;20012;-77
2021/07/29 05:56:24;;;;;;;;;;;16.60;75.70;;;;;;5053038;28;20068;-74
2021/07/29 05:58:51;;;;;;;;;;;16.70;75.60;;;;;;5053016;28;19932;-73
2021/07/29 06:01:17;;;;;;;;;;;16.70;75.60;;;;;;5052035;28;20419;-74
2021/07/29 06:03:43;;;;;;;;;;;16.70;75.40;;;;;;5053181;28;19925;-76
2021/07/29 06:06:09;;;;;;;;;;;16.70;75.30;;;;;;5053512;28;19926;-75
2021/07/29 06:08:36;;;;;;;;;;;16.70;75.30;;;;;;5052692;28;19932;-75
2021/07/29 06:11:02;;;;;;;;;;;16.80;75.30;;;;;;5052742;28;19925;-74
2021/07/29 06:13:28;;;;;;;;;;;16.80;75.20;;;;;;5052638;28;20311;-75
2021/07/29 06:15:55;;;;;;;;;;;16.80;75.10;;;;;;5051835;28;20059;-75
2021/07/29 06:18:23;;;;;;;;;;;16.80;74.90;;;;;;5052794;28;20034;-75
2021/07/29 06:20:49;;;;;;;;;;;16.90;74.90;;;;;;5052721;28;19932;-75
2021/07/29 06:23:16;;;;;;;;;;;16.90;75.90;;;;;;5053023;28;19963;-75
2021/07/29 06:25:42;;;;;;;;;;;16.90;74.80;;;;;;5052500;28;19932;-75
2021/07/29 06:28:12;;;;;;;;;;;16.90;74.70;;;;;;5053056;28;19928;-74
2021/07/29 06:30:38;;;;;;;;;;;17.00;74.70;;;;;;5034644;28;20047;-74
2021/07/29 06:33:04;;;;;;;;;;;17.00;74.60;;;;;;5052716;28;19975;-74
2021/07/29 06:35:30;;;;;;;;;;;17.00;74.60;;;;;;5052667;28;19931;-74
2021/07/29 06:37:57;;;;;;;;;;;17.10;74.60;;;;;;5052639;28;19980;-75
2021/07/29 06:40:24;;;;;;;;;;;17.10;74.50;;;;;;5052424;28;19983;-75
2021/07/29 06:42:50;;;;;;;;;;;17.10;74.40;;;;;;5052634;28;20008;-75
2021/07/29 06:45:16;;;;;;;;;;;17.20;74.40;;;;;;5052698;28;20018;-74
2021/07/29 06:47:42;;;;;;;;;;;17.20;74.20;;;;;;5052250;28;20467;-75
2021/07/29 06:50:09;;;;;;;;;;;17.30;74.00;;;;;;5052142;28;20066;-75
2021/07/29 06:52:35;;;;;;;;;;;17.40;73.80;;;;;;5052085;28;20265;-75
2021/07/29 06:55:01;;;;;;;;;;;17.40;73.70;;;;;;5052381;28;20074;-75
2021/07/29 06:57:27;;;;;;;;;;;17.40;73.50;;;;;;5052021;28;19925;-75
2021/07/29 06:59:53;;;;;;;;;;;17.50;73.40;;;;;;5052238;28;19932;-75
2021/07/29 07:02:19;;;;;;;;;;;17.60;73.00;;;;;;5052367;28;20017;-75
2021/07/29 07:04:45;;;;;;;;;;;17.60;72.90;;;;;;5052080;28;19998;-75
2021/07/29 07:07:16;;;;;;;;;;;17.70;72.80;;;;;;5051847;28;20410;-75
2021/07/29 07:09:42;;;;;;;;;;;17.70;72.60;;;;;;5052126;28;19975;-75
2021/07/29 07:12:09;;;;;;;;;;;17.80;72.50;;;;;;5033679;28;20012;-75
2021/07/29 07:14:35;;;;;;;;;;;17.80;72.60;;;;;;5051998;28;20059;-75
2021/07/29 07:17:03;;;;;;;;;;;17.90;72.50;;;;;;5051161;28;19929;-74
2021/07/29 07:19:29;;;;;;;;;;;18.00;72.40;;;;;;5052111;28;19925;-75
2021/07/29 07:21:55;;;;;;;;;;;18.10;72.10;;;;;;5051537;28;19925;-75
2021/07/29 07:24:23;;;;;;;;;;;18.10;71.80;;;;;;5051792;28;20304;-75
2021/07/29 07:26:49;;;;;;;;;;;18.20;71.70;;;;;;5051404;28;19959;-75
2021/07/29 07:29:15;;;;;;;;;;;18.30;71.30;;;;;;5051788;28;20017;-75
2021/07/29 07:31:41;;;;;;;;;;;18.40;71.20;;;;;;5051820;28;20017;-75
2021/07/29 07:34:07;;;;;;;;;;;18.50;71.00;;;;;;5052006;28;20441;-75
2021/07/29 07:36:33;;;;;;;;;;;18.70;70.60;;;;;;5051618;28;19925;-75
2021/07/29 07:39:00;;;;;;;;;;;18.80;70.10;;;;;;5051839;28;19925;-75
2021/07/29 07:41:26;;;;;;;;;;;19.00;69.60;;;;;;5051768;28;19925;-75
2021/07/29 07:43:52;;;;;;;;;;;19.20;68.30;;;;;;5051490;28;19932;-76
2021/07/29 07:46:18;;;;;;;;;;;19.40;67.40;;;;;;5051849;28;19962;-76
2021/07/29 07:48:46;;;;;;;;;;;19.70;66.80;;;;;;5051557;28;20308;-76
2021/07/29 07:51:12;;;;;;;;;;;20.00;66.10;;;;;;5051244;28;20021;-76
2021/07/29 07:53:38;;;;;;;;;;;20.30;65.20;;;;;;5051397;28;20008;-76
2021/07/29 07:56:05;;;;;;;;;;;20.60;64.20;;;;;;5051002;28;20383;-75
2021/07/29 07:58:31;;;;;;;;;;;20.90;63.20;;;;;;5051606;28;19963;-76
2021/07/29 08:00:58;;;;;;;;;;;21.30;61.80;;;;;;5051449;28;20074;-76
2021/07/29 08:03:24;;;;;;;;;;;21.60;61.00;;;;;;5051884;28;20018;-76
2021/07/29 08:05:50;;;;;;;;;;;21.90;58.50;;;;;;5051286;28;20070;-76
2021/07/29 08:08:16;;;;;;;;;;;22.10;58.90;;;;;;5051575;28;19929;-75
2021/07/29 08:10:42;;;;;;;;;;;22.40;58.30;;;;;;5051660;28;19929;-76
2021/07/29 08:13:08;;;;;;;;;;;22.70;57.60;;;;;;5051325;28;20053;-76
2021/07/29 08:15:35;;;;;;;;;;;23.10;56.60;;;;;;5037441;28;19924;-76
2021/07/29 08:18:02;;;;;;;;;;;23.40;55.70;;;;;;5051315;28;20011;-74
2021/07/29 08:20:29;;;;;;;;;;;23.70;54.50;;;;;;5050960;28;20058;-76
2021/07/29 08:22:55;;;;;;;;;;;24.10;54.20;;;;;;5051473;28;19925;-74
2021/07/29 08:25:22;;;;;;;;;;;24.50;53.40;;;;;;5051195;28;19977;-74
2021/07/29 08:27:48;;;;;;;;;;;24.80;52.90;;;;;;5051300;28;20055;-76
2021/07/29 08:30:15;;;;;;;;;;;25.10;51.40;;;;;;5053285;28;19925;-74
2021/07/29 08:32:42;;;;;;;;;;;25.30;50.00;;;;;;5054942;28;19967;-73
2021/07/29 08:35:08;;;;;;;;;;;25.70;49.40;;;;;;5054839;28;20003;-76
2021/07/29 08:37:34;;;;;;;;;;;26.00;46.40;;;;;;5054556;28;19995;-76
2021/07/29 08:40:01;;;;;;;;;;;26.20;46.80;;;;;;5054616;28;19932;-76
2021/07/29 08:42:27;;;;;;;;;;;26.30;45.50;;;;;;5054702;28;20016;-76
2021/07/29 08:44:54;;;;;;;;;;;26.30;45.90;;;;;;5054984;28;20048;-74
2021/07/29 08:47:22;;;;;;;;;;;26.60;45.80;;;;;;5054387;28;19978;-74
2021/07/29 08:49:50;;;;;;;;;;;26.80;44.50;;;;;;5054694;28;19932;-74
2021/07/29 08:52:16;;;;;;;;;;;27.00;42.80;;;;;;5054604;28;20014;-74
2021/07/29 08:54:42;;;;;;;;;;;26.70;42.10;;;;;;5040227;28;19959;-74
2021/07/29 08:57:17;;;;;;;;;;;26.20;42.50;;;;;;5054518;28;19925;-76
2021/07/29 08:59:43;;;;;;;;;;;25.60;42.80;;;;;;5054489;28;19956;-76
2021/07/29 09:02:21;;;;;;;;;;;24.90;44.00;;;;;;5054710;28;19925;-76
2021/07/29 09:05:07;;;;;;;;;;;24.40;44.90;;;;;;5054133;28;20025;-76
2021/07/29 09:07:33;;;;;;;;;;;23.90;46.20;;;;;;5054425;28;19964;-76
2021/07/29 09:09:59;;;;;;;;;;;23.50;46.90;;;;;;5054016;28;20015;-76
2021/07/29 09:12:26;;;;;;;;;;;23.10;47.30;;;;;;5054453;28;19979;-76
2021/07/29 09:14:53;;;;;;;;;;;22.70;47.80;;;;;;5054183;28;20021;-76
2021/07/29 09:17:19;;;;;;;;;;;22.50;48.00;;;;;;5054116;28;19925;-76
2021/07/29 09:19:49;;;;;;;;;;;22.30;48.20;;;;;;5054147;28;20001;-76
2021/07/29 09:22:15;;;;;;;;;;;22.10;48.70;;;;;;5053604;28;19932;-76
2021/07/29 09:25:05;;;;;;;;;;;21.90;49.30;;;;;;5053908;28;19995;-76
2021/07/29 09:27:37;;;;;;;;;;;21.80;49.70;;;;;;5048524;28;19964;-76
2021/07/29 09:30:21;;;;;;;;;;;22.20;51.40;;;;;;5053699;28;19999;-76
2021/07/29 09:32:52;;;;;;;;;;;23.30;50.80;;;;;;5041854;28;20008;-76
2021/07/29 09:35:31;;;;;;;;;;;24.70;46.20;;;;;;5053541;28;19929;-76
2021/07/29 09:38:04;;;;;;;;;;;25.70;46.00;;;;;;5053433;28;19939;-76
2021/07/29 09:40:59;;;;;;;;;;;26.70;44.50;;;;;;5053036;28;19964;-76
2021/07/29 09:43:26;;;;;;;;;;;27.40;42.30;;;;;;5053295;28;19932;-76
2021/07/29 09:45:53;;;;;;;;;;;27.10;40.40;;;;;;5053460;28;19924;-76
2021/07/29 09:48:21;;;;;;;;;;;26.60;40.60;;;;;;5053802;28;20022;-76
2021/07/29 09:50:48;;;;;;;;;;;26.20;41.70;;;;;;5053355;28;20017;-76
2021/07/29 09:53:15;;;;;;;;;;;26.60;42.50;;;;;;5052749;28;20380;-76
2021/07/29 09:55:41;;;;;;;;;;;27.40;41.50;;;;;;5053379;28;20015;-76
2021/07/29 09:58:07;;;;;;;;;;;28.40;38.90;;;;;;5053408;28;20008;-76
2021/07/29 10:00:35;;;;;;;;;;;29.00;37.00;;;;;;5053624;28;19932;-77
2021/07/29 10:03:03;;;;;;;;;;;29.30;36.40;;;;;;5053299;28;19924;-76
2021/07/29 10:05:50;;;;;;;;;;;29.60;34.90;;;;;;5053264;28;19987;-77
2021/07/29 10:08:35;;;;;;;;;;;29.80;34.20;;;;;;5052898;28;20014;-74
2021/07/29 10:11:04;;;;;;;;;;;30.30;34.50;;;;;;5052821;28;20411;-77
2021/07/29 10:13:33;;;;;;;;;;;30.90;33.00;;;;;;5053246;28;20419;-77
2021/07/29 10:16:00;;;;;;;;;;;31.30;33.20;;;;;;5053015;28;20311;-77
2021/07/29 10:18:26;;;;;;;;;;;31.60;32.80;;;;;;5052853;28;19925;-74
2021/07/29 10:21:21;;;;;;;;;;;31.90;32.90;;;;;;5052503;28;19968;-74
2021/07/29 10:23:51;;;;;;;;;;;32.10;31.30;;;;;;5052694;28;20012;-77
2021/07/29 10:26:17;;;;;;;;;;;32.40;31.50;;;;;;5034920;28;19928;-75
2021/07/29 10:28:43;;;;;;;;;;;32.30;30.70;;;;;;5068060;28;20303;-76
2021/07/29 10:31:11;;;;;;;;;;;31.70;30.10;;;;;;5052853;28;20338;-76
2021/07/29 10:33:37;;;;;;;;;;;30.80;30.10;;;;;;5052603;28;20403;-76
2021/07/29 10:36:04;;;;;;;;;;;29.70;31.30;;;;;;5052705;28;19960;-76
2021/07/29 10:38:36;;;;;;;;;;;28.70;33.10;;;;;;5052533;28;20011;-76
2021/07/29 10:41:05;;;;;;;;;;;28.00;34.00;;;;;;5052198;28;20011;-76
2021/07/29 10:43:31;;;;;;;;;;;26.90;36.30;;;;;;5052645;28;19987;-76
2021/07/29 10:45:57;;;;;;;;;;;26.10;38.20;;;;;;5033931;28;20029;-76
2021/07/29 10:48:43;;;;;;;;;;;25.50;39.00;;;;;;5052678;28;19940;-76
2021/07/29 10:51:16;;;;;;;;;;;25.20;39.10;;;;;;5051928;28;19925;-76
2021/07/29 10:53:43;;;;;;;;;;;25.00;40.20;;;;;;5051164;28;19924;-76
2021/07/29 10:56:13;;;;;;;;;;;25.00;40.40;;;;;;5052255;28;20384;-76
2021/07/29 10:58:41;;;;;;;;;;;25.10;40.60;;;;;;5052361;28;20015;-75
2021/07/29 11:01:08;;;;;;;;;;;25.10;39.10;;;;;;5051742;28;19976;-77
2021/07/29 11:03:34;;;;;;;;;;;24.90;39.50;;;;;;5052413;28;19940;-76
2021/07/29 11:06:06;;;;;;;;;;;24.70;40.30;;;;;;5051650;28;19929;-76
2021/07/29 11:08:32;;;;;;;;;;;24.70;40.90;;;;;;5051768;28;20411;-76
2021/07/29 11:10:58;;;;;;;;;;;24.50;40.60;;;;;;5052020;28;19929;-75
2021/07/29 11:13:27;;;;;;;;;;;24.20;41.20;;;;;;5051475;28;20219;-76
2021/07/29 11:15:54;;;;;;;;;;;24.10;42.00;;;;;;5052120;28;19925;-76
2021/07/29 11:18:21;;;;;;;;;;;24.00;42.30;;;;;;5051625;28;19932;-75
2021/07/29 11:20:47;;;;;;;;;;;23.90;42.70;;;;;;5051864;28;20019;-76
2021/07/29 11:23:14;;;;;;;;;;;23.80;43.20;;;;;;5051966;28;19932;-76
2021/07/29 11:25:54;;;;;;;;;;;23.70;42.00;;;;;;5051571;28;20295;-76
2021/07/29 11:28:20;;;;;;;;;;;23.70;41.50;;;;;;5051730;28;19925;-76
2021/07/29 11:30:46;;;;;;;;;;;23.90;42.10;;;;;;5052037;28;19980;-75
2021/07/29 11:33:20;;;;;;;;;;;24.00;42.20;;;;;;5051469;28;19960;-76
2021/07/29 11:35:46;;;;;;;;;;;24.10;41.50;;;;;;5051593;28;19931;-76
2021/07/29 11:38:17;;;;;;;;;;;24.20;40.50;;;;;;5051829;28;20021;-76
2021/07/29 11:40:43;;;;;;;;;;;24.10;39.60;;;;;;5051597;28;19947;-75
2021/07/29 11:43:22;;;;;;;;;;;23.90;40.80;;;;;;5051735;28;20067;-76
2021/07/29 11:45:48;;;;;;;;;;;23.50;41.30;;;;;;5051682;28;19933;-76
2021/07/29 11:48:21;;;;;;;;;;;23.20;42.30;;;;;;5051746;28;19961;-76
2021/07/29 11:50:47;;;;;;;;;;;23.00;43.20;;;;;;5051780;28;20012;-76
2021/07/29 11:53:13;;;;;;;;;;;22.90;43.60;;;;;;5051367;28;19924;-76
2021/07/29 11:55:50;;;;;;;;;;;22.80;43.60;;;;;;5051697;28;20055;-76
2021/07/29 11:58:16;;;;;;;;;;;22.80;43.70;;;;;;5051769;28;20372;-76
2021/07/29 12:00:43;;;;;;;;;;;22.80;44.50;;;;;;5051949;28;20410;-76
2021/07/29 12:03:10;;;;;;;;;;;22.80;44.60;;;;;;5051583;28;20323;-76
2021/07/29 12:05:39;;;;;;;;;;;22.90;44.20;;;;;;5055424;28;19948;-76
2021/07/29 12:08:05;;;;;;;;;;;22.90;43.20;;;;;;5070874;28;20399;-76
2021/07/29 12:10:32;;;;;;;;;;;22.80;42.70;;;;;;5055405;28;19932;-76
2021/07/29 12:12:59;;;;;;;;;;;22.70;43.30;;;;;;5055574;28;19928;-76
2021/07/29 12:15:25;;;;;;;;;;;22.80;44.50;;;;;;5055165;28;20368;-76
2021/07/29 12:17:51;;;;;;;;;;;23.00;44.80;;;;;;5055126;28;19925;-76
2021/07/29 12:20:19;;;;;;;;;;;23.10;44.60;;;;;;5054970;28;20463;-76
2021/07/29 12:22:46;;;;;;;;;;;23.30;44.70;;;;;;5055567;28;20375;-76
2021/07/29 12:25:28;;;;;;;;;;;23.40;44.30;;;;;;5054708;28;19925;-75
2021/07/29 12:27:56;;;;;;;;;;;23.40;43.90;;;;;;5054953;28;20012;-76
2021/07/29 12:30:29;;;;;;;;;;;23.50;43.50;;;;;;5054552;28;20392;-76
2021/07/29 12:33:12;;;;;;;;;;;23.50;43.50;;;;;;5036386;28;20008;-76
2021/07/29 12:35:39;;;;;;;;;;;23.50;43.70;;;;;;5054873;28;19999;-76
2021/07/29 12:38:06;;;;;;;;;;;23.30;44.10;;;;;;5054938;28;19931;-76
2021/07/29 12:40:32;;;;;;;;;;;23.10;44.40;;;;;;5054680;28;20744;-76
2021/07/29 12:43:17;;;;;;;;;;;23.00;43.70;;;;;;5054574;28;19932;-76
2021/07/29 12:45:46;;;;;;;;;;;22.80;45.00;;;;;;5054486;28;20011;-76
2021/07/29 12:48:13;;;;;;;;;;;22.90;45.80;;;;;;5054911;28;19925;-76
2021/07/29 12:50:39;;;;;;;;;;;22.90;45.10;;;;;;5054730;28;19935;-76
2021/07/29 12:53:12;;;;;;;;;;;23.00;44.60;;;;;;5054231;28;19925;-76
2021/07/29 12:55:39;;;;;;;;;;;23.10;44.40;;;;;;5054512;28;20396;-76
2021/07/29 12:58:06;;;;;;;;;;;23.10;43.80;;;;;;5054326;28;19968;-76
2021/07/29 13:00:35;;;;;;;;;;;23.20;43.80;;;;;;5035915;28;19958;-76
2021/07/29 13:03:01;;;;;;;;;;;23.20;44.00;;;;;;5054364;28;20021;-76
2021/07/29 13:05:28;;;;;;;;;;;23.10;44.40;;;;;;5054597;28;19924;-76
2021/07/29 13:07:55;;;;;;;;;;;23.20;44.80;;;;;;5054476;28;20438;-76
2021/07/29 13:10:21;;;;;;;;;;;23.10;44.30;;;;;;5053878;28;20295;-76
2021/07/29 13:12:48;;;;;;;;;;;23.00;44.80;;;;;;5054396;28;19924;-76
2021/07/29 13:15:14;;;;;;;;;;;22.90;44.60;;;;;;5052885;28;20394;-76
2021/07/29 13:17:40;;;;;;;;;;;22.80;44.70;;;;;;5054187;28;19929;-75
2021/07/29 13:20:07;;;;;;;;;;;22.80;46.00;;;;;;5053820;28;19928;-76
2021/07/29 13:22:33;;;;;;;;;;;22.70;46.30;;;;;;5054238;28;20415;-76
2021/07/29 13:24:59;;;;;;;;;;;22.80;47.00;;;;;;5054111;28;19928;-76
2021/07/29 13:27:25;;;;;;;;;;;22.70;46.80;;;;;;5053964;28;20380;-76
2021/07/29 13:29:51;;;;;;;;;;;22.70;46.80;;;;;;5053256;28;19981;-76
2021/07/29 13:32:18;;;;;;;;;;;22.60;46.80;;;;;;5053669;28;19928;-76
2021/07/29 13:34:45;;;;;;;;;;;22.60;46.50;;;;;;5054142;28;20406;-76
2021/07/29 13:37:11;;;;;;;;;;;22.70;46.80;;;;;;5053370;28;19932;-76
2021/07/29 13:39:38;;;;;;;;;;;22.70;46.40;;;;;;5053839;28;20008;-76
2021/07/29 13:42:04;;;;;;;;;;;22.70;46.40;;;;;;5053350;28;19924;-76
2021/07/29 13:44:30;;;;;;;;;;;22.70;47.10;;;;;;5053362;28;20019;-76
2021/07/29 13:46:56;;;;;;;;;;;22.70;46.60;;;;;;5053867;28;19964;-76
2021/07/29 13:49:23;;;;;;;;;;;22.60;47.50;;;;;;5053353;28;19924;-76
2021/07/29 13:51:49;;;;;;;;;;;22.60;47.00;;;;;;5053117;28;20020;-75
2021/07/29 13:54:15;;;;;;;;;;;22.70;46.20;;;;;;5053377;28;19932;-76
2021/07/29 13:56:42;;;;;;;;;;;22.70;45.40;;;;;;5053545;28;19975;-76
2021/07/29 13:59:08;;;;;;;;;;;22.80;45.40;;;;;;5052811;28;19987;-76
2021/07/29 14:01:34;;;;;;;;;;;22.80;44.90;;;;;;5053526;28;20380;-76
2021/07/29 14:04:00;;;;;;;;;;;22.80;45.00;;;;;;5053207;28;20006;-75
2021/07/29 14:06:26;;;;;;;;;;;22.90;45.30;;;;;;5052884;28;20330;-76
2021/07/29 14:08:52;;;;;;;;;;;22.90;45.70;;;;;;5053596;28;19964;-76
2021/07/29 14:11:21;;;;;;;;;;;22.90;46.00;;;;;;5052899;28;20269;-76
2021/07/29 14:13:47;;;;;;;;;;;22.90;46.10;;;;;;5052710;28;20007;-75
2021/07/29 14:16:13;;;;;;;;;;;22.90;46.80;;;;;;5053180;28;19932;-76
2021/07/29 14:18:44;;;;;;;;;;;22.90;47.20;;;;;;5052659;28;20016;-76